Lisca, Slovenia

6:59 AM CEST on September 18, 2014 (GMT +0200)
Velika Preska | Change Station
CLOSE
Current Station
Personal Weather Station
Location: Velika Preska, LITIJA
Elevation: 2585 ft
Nearby Weather Stations

Elev 2585 ft 46.05 °N, 14.96 °E | Updated 4 minutes ago

Mostly Cloudy
Mostly Cloudy
51.0 °F
Feels Like 51.0 °F
N
2.0
Wind Variable Wind from NNE
Gusts 3.0 mph

Today
High -- | Low -- °F
--% Chance of Precip.
Yesterday
High -- | Low -- °F
Precip. -- in
6:40 AM 7:04 PM
Waning Crescent, 30% visible
Pressure 30.09 in
Visibility 3.7 miles
Clouds Few 400 ft
Mostly Cloudy 6000 ft
Dew Point 45 °F
Humidity 80%
Rainfall 0.00 in
Snow Depth Not available.
UV 0 out of 12
Pollen Not available.
Air Quality Not available.
Flu Activity Not available.
METAR LOWK 180450Z VRB02KT 6000 FEW004 BKN060 10/09 Q1019 NOSIG

More Conditions Fewer Conditions

Pressure 30.09 in
Visibility 3.7 miles
Clouds Few 400 ft
Mostly Cloudy 6000 ft
Dew Point 45 °F
Humidity 80%
Rainfall 0.00 in
Snow Depth Not available.
UV 0 out of 12
Pollen Not available.
Air Quality Not available.
Flu Activity Not available.
METAR LOWK 180450Z VRB02KT 6000 FEW004 BKN060 10/09 Q1019 NOSIG

More Conditions Fewer Conditions

10-Day Weather Forecast

Almanac

Astronomy

Sep. 18, 2014 Rise Set
Actual Time 6:40 AM CEST 7:04 PM CEST
Civil Twilight 6:10 AM CEST 7:34 PM CEST
Nautical Twilight 5:34 AM CEST 8:10 PM CEST
Astronomical Twilight 4:58 AM CEST 8:46 PM CEST
Moon 1:03 AM CEST 3:56 PM CEST
Length of Visible Light 13h 24m
Length of Day
12h 24m
Tomorrow will be 3m 14s shorter.
Waning Crescent, 30% of the Moon is Illuminated
Today
Waning Crescent
Sep 24
New
Oct 1
First Quarter
Oct 8
Full
Oct 15
Last Quarter

Yesterday's Extremes

Country Highs Country Lows

Community

WunderPhotos

Upload Photos

1,754,295 photos uploaded!

Nearby

Snow Depth

Not available.

Earthquake Activity

City Distance Mag. Time & Date
No recent earthquake activity has been reported nearby.
Minimum magnitude displayed is 2.5.

Coastal Water Temperatures

Place Temperature
No Stations Reporting

Nearby Weather Stations